createdAt,value
2018-12-30T00:02:12.703Z,8.90
2018-12-30T00:07:08.402Z,8.90
2018-12-30T00:12:03.877Z,8.90
2018-12-30T00:16:59.370Z,8.90
2018-12-30T00:21:54.832Z,8.90
2018-12-30T00:26:50.714Z,8.90
2018-12-30T00:31:46.178Z,8.90
2018-12-30T00:36:41.711Z,8.90
2018-12-30T00:41:37.492Z,8.90
2018-12-30T00:46:32.967Z,8.90
2018-12-30T00:51:28.473Z,8.90
2018-12-30T00:56:23.969Z,8.90
2018-12-30T01:01:19.452Z,8.90
2018-12-30T01:06:14.921Z,8.90
2018-12-30T01:11:10.407Z,8.90
2018-12-30T01:16:05.883Z,8.80
2018-12-30T01:21:01.489Z,8.80
2018-12-30T01:25:56.981Z,8.90
2018-12-30T01:30:52.507Z,8.80
2018-12-30T01:35:48.073Z,8.80
2018-12-30T01:40:43.591Z,8.80
2018-12-30T01:45:39.062Z,8.80
2018-12-30T01:50:34.588Z,8.80
2018-12-30T01:55:30.177Z,8.80
2018-12-30T02:00:25.838Z,8.80
2018-12-30T02:05:21.440Z,8.70
2018-12-30T02:10:17.422Z,8.70
2018-12-30T02:15:13.130Z,8.70
2018-12-30T02:20:08.790Z,8.70
2018-12-30T02:25:04.500Z,8.70
2018-12-30T02:30:00.349Z,8.70
2018-12-30T02:34:56.013Z,8.70
2018-12-30T02:39:51.822Z,8.70
2018-12-30T02:44:47.630Z,8.70
2018-12-30T02:49:43.131Z,8.70
2018-12-30T02:54:38.594Z,8.60
2018-12-30T02:59:34.088Z,8.70
2018-12-30T03:04:29.594Z,8.70
2018-12-30T03:09:25.133Z,8.60
2018-12-30T03:14:21.009Z,8.60
2018-12-30T03:19:16.700Z,8.60
2018-12-30T03:24:12.205Z,8.60
2018-12-30T03:29:07.996Z,8.60
2018-12-30T03:34:03.536Z,8.60
2018-12-30T03:38:59.220Z,8.60
2018-12-30T03:43:54.714Z,8.50
2018-12-30T03:48:50.230Z,8.50
2018-12-30T03:53:45.867Z,8.50
2018-12-30T03:58:41.529Z,8.50
2018-12-30T04:03:37.014Z,8.50
2018-12-30T04:08:32.472Z,8.50
2018-12-30T04:13:28.202Z,8.50
2018-12-30T04:18:23.757Z,8.50
2018-12-30T04:23:19.367Z,8.50
2018-12-30T04:28:14.940Z,8.50
2018-12-30T04:33:10.623Z,8.50
2018-12-30T04:38:06.333Z,8.50
2018-12-30T04:43:01.867Z,8.40
2018-12-30T04:47:57.382Z,8.40
2018-12-30T04:52:52.905Z,8.40
2018-12-30T04:57:48.511Z,8.30
2018-12-30T05:02:44.267Z,8.30
2018-12-30T05:07:39.802Z,8.30
2018-12-30T05:12:35.277Z,8.30
2018-12-30T05:17:30.954Z,8.30
2018-12-30T05:22:33.616Z,8.30
2018-12-30T05:27:23.802Z,8.20
2018-12-30T05:32:19.418Z,8.20
2018-12-30T05:37:16.860Z,8.10
2018-12-30T05:42:12.626Z,8.10
2018-12-30T05:47:10.930Z,8.10
2018-12-30T05:52:06.700Z,8.10
2018-12-30T05:57:02.362Z,8.00
2018-12-30T06:01:57.849Z,7.80
2018-12-30T06:06:53.493Z,7.80
2018-12-30T06:11:49.117Z,7.90
2018-12-30T06:16:44.871Z,8.00
2018-12-30T06:21:40.519Z,8.00
2018-12-30T06:26:36.075Z,8.10
2018-12-30T06:31:31.643Z,8.10
2018-12-30T06:36:27.275Z,8.20
2018-12-30T06:41:22.926Z,8.20
2018-12-30T06:46:18.572Z,8.30
2018-12-30T06:51:14.226Z,8.30
2018-12-30T06:56:10.095Z,8.30
2018-12-30T07:01:05.904Z,8.30
2018-12-30T07:06:01.525Z,8.30
2018-12-30T07:10:57.021Z,8.40
2018-12-30T07:15:52.613Z,8.30
2018-12-30T07:20:48.339Z,8.40
2018-12-30T07:25:44.012Z,8.40
2018-12-30T07:30:39.591Z,8.40
2018-12-30T07:35:35.147Z,8.40
2018-12-30T07:40:30.720Z,8.40
2018-12-30T07:45:26.410Z,8.40
2018-12-30T07:50:21.943Z,8.40
2018-12-30T07:55:17.565Z,8.40
2018-12-30T08:00:13.071Z,8.40
2018-12-30T08:05:08.627Z,8.50
2018-12-30T08:10:05.598Z,8.50
2018-12-30T08:15:03.526Z,8.50
2018-12-30T08:19:59.331Z,8.50
2018-12-30T08:24:55.088Z,8.50
2018-12-30T08:29:50.878Z,8.50
2018-12-30T08:34:47.529Z,8.50
2018-12-30T08:39:43.158Z,8.60
2018-12-30T08:44:39.174Z,8.60
2018-12-30T08:49:35.196Z,8.90
2018-12-30T08:54:31.454Z,9.20
2018-12-30T08:59:27.077Z,9.40
2018-12-30T09:04:22.563Z,9.60
2018-12-30T09:09:18.033Z,9.70
2018-12-30T09:14:13.575Z,9.70
2018-12-30T09:19:09.026Z,9.70
2018-12-30T09:24:04.503Z,9.80
2018-12-30T09:28:59.969Z,9.80
2018-12-30T09:33:55.508Z,9.80
2018-12-30T09:38:50.987Z,9.80
2018-12-30T09:43:46.484Z,9.80
2018-12-30T09:48:43.468Z,9.90
2018-12-30T09:53:45.137Z,10.00
2018-12-30T09:58:38.366Z,10.10
2018-12-30T10:03:34.273Z,10.00
2018-12-30T10:08:30.394Z,10.10
2018-12-30T10:13:26.574Z,10.10
2018-12-30T10:18:22.059Z,10.20
2018-12-30T10:23:17.920Z,10.20
2018-12-30T10:28:14.079Z,10.10
2018-12-30T10:33:09.995Z,10.00
2018-12-30T10:38:05.672Z,10.10
2018-12-30T10:43:01.845Z,10.00
2018-12-30T10:47:57.682Z,9.90
2018-12-30T10:52:54.092Z,9.90
2018-12-30T10:57:50.162Z,9.80
2018-12-30T11:02:46.746Z,9.90
2018-12-30T11:07:42.881Z,9.90
2018-12-30T11:12:39.170Z,9.90
2018-12-30T11:17:35.596Z,10.00
2018-12-30T11:22:31.642Z,10.10
2018-12-30T11:27:27.596Z,10.10
2018-12-30T11:32:23.135Z,10.10
2018-12-30T11:37:18.638Z,10.10
2018-12-30T11:42:14.143Z,10.10
2018-12-30T11:47:09.632Z,10.20
2018-12-30T11:52:05.130Z,10.20
2018-12-30T11:57:00.630Z,10.10
2018-12-30T12:01:56.126Z,10.00
2018-12-30T12:06:51.602Z,9.90
2018-12-30T12:11:47.099Z,9.80
2018-12-30T12:16:42.597Z,9.90
2018-12-30T12:21:38.563Z,10.00
2018-12-30T12:26:34.040Z,10.00
2018-12-30T12:31:29.539Z,10.00
2018-12-30T12:36:25.166Z,10.00
2018-12-30T12:41:20.801Z,10.00
2018-12-30T12:46:16.303Z,10.00
2018-12-30T12:51:11.785Z,10.00
2018-12-30T12:56:07.290Z,10.00
2018-12-30T13:01:03.198Z,10.00
2018-12-30T13:05:58.709Z,10.10
2018-12-30T13:10:54.217Z,10.10
2018-12-30T13:15:49.852Z,10.20
2018-12-30T13:20:47.667Z,10.20
2018-12-30T13:25:43.355Z,10.30
2018-12-30T13:30:38.894Z,10.20
2018-12-30T13:35:34.390Z,10.10
2018-12-30T13:40:30.050Z,10.10
2018-12-30T13:45:25.647Z,10.00
2018-12-30T13:50:21.290Z,10.00
2018-12-30T13:55:16.770Z,9.90
2018-12-30T14:00:14.188Z,9.80
2018-12-30T14:05:09.782Z,9.70
2018-12-30T14:10:06.408Z,9.70
2018-12-30T14:15:01.932Z,9.60
2018-12-30T14:19:57.388Z,9.60
2018-12-30T14:24:55.487Z,9.50
2018-12-30T14:29:50.143Z,9.50
2018-12-30T14:34:45.740Z,9.50
2018-12-30T14:39:41.324Z,9.40
2018-12-30T14:44:36.833Z,9.40
2018-12-30T14:49:32.509Z,9.30
2018-12-30T14:54:27.994Z,9.20
2018-12-30T14:59:23.509Z,9.20
2018-12-30T15:04:19.063Z,9.20
2018-12-30T15:09:14.556Z,9.20
2018-12-30T15:14:10.026Z,9.20
2018-12-30T15:19:05.495Z,9.10
2018-12-30T15:24:01.059Z,9.10
2018-12-30T15:28:56.765Z,9.10
2018-12-30T15:33:52.256Z,9.10
2018-12-30T15:38:47.766Z,9.10
2018-12-30T15:43:43.311Z,9.10
2018-12-30T15:48:38.780Z,9.00
2018-12-30T15:53:34.292Z,9.10
2018-12-30T15:58:29.776Z,9.10
2018-12-30T16:03:25.266Z,9.10
2018-12-30T16:08:20.812Z,9.10
2018-12-30T16:13:16.316Z,9.10
2018-12-30T16:18:11.859Z,9.00
2018-12-30T16:23:07.418Z,9.00
2018-12-30T16:28:02.894Z,9.00
2018-12-30T16:32:58.473Z,9.00
2018-12-30T16:37:54.010Z,8.90
2018-12-30T16:42:49.487Z,8.90
2018-12-30T16:47:44.954Z,8.80
2018-12-30T16:52:40.433Z,8.80
2018-12-30T16:57:35.965Z,8.80
2018-12-30T17:02:31.462Z,8.70
2018-12-30T17:07:26.943Z,8.70
2018-12-30T17:12:22.533Z,8.60
2018-12-30T17:17:17.987Z,8.60
2018-12-30T17:22:13.475Z,8.60
2018-12-30T17:27:08.962Z,8.60
2018-12-30T17:32:04.605Z,8.60
2018-12-30T17:37:00.159Z,8.50
2018-12-30T17:41:55.664Z,8.50
2018-12-30T17:46:51.192Z,8.50
2018-12-30T17:51:46.662Z,8.50
2018-12-30T17:56:42.254Z,8.50
2018-12-30T18:01:37.726Z,8.50
2018-12-30T18:06:33.241Z,8.50
2018-12-30T18:11:28.759Z,8.50
2018-12-30T18:16:24.369Z,8.50
2018-12-30T18:21:19.910Z,8.50
2018-12-30T18:26:15.449Z,8.50
2018-12-30T18:31:11.189Z,8.50
2018-12-30T18:36:06.663Z,8.50
2018-12-30T18:41:02.221Z,8.60
2018-12-30T18:45:57.716Z,8.60
2018-12-30T18:50:53.187Z,8.60
2018-12-30T18:55:48.697Z,8.70
2018-12-30T19:00:44.201Z,8.70
2018-12-30T19:05:39.730Z,8.70
2018-12-30T19:10:35.245Z,8.70
2018-12-30T19:15:30.728Z,8.80
2018-12-30T19:20:26.222Z,8.80
2018-12-30T19:25:21.682Z,8.80
2018-12-30T19:30:17.185Z,8.80
2018-12-30T19:35:12.719Z,8.80
2018-12-30T19:40:10.675Z,8.80
2018-12-30T19:45:06.272Z,8.80
2018-12-30T19:50:01.759Z,8.80
2018-12-30T19:54:57.345Z,8.80
2018-12-30T19:59:52.870Z,8.80
2018-12-30T20:04:48.376Z,8.80
2018-12-30T20:09:43.879Z,8.90
2018-12-30T20:14:39.454Z,8.90
2018-12-30T20:19:34.947Z,8.90
2018-12-30T20:24:30.451Z,8.90
2018-12-30T20:29:25.914Z,8.90
2018-12-30T20:34:21.429Z,9.00
2018-12-30T20:39:16.938Z,9.00
2018-12-30T20:44:12.400Z,9.00
2018-12-30T20:49:07.926Z,9.00
2018-12-30T20:54:03.413Z,9.10
2018-12-30T20:58:58.885Z,9.10
2018-12-30T21:03:54.463Z,9.10
2018-12-30T21:08:49.962Z,9.10
2018-12-30T21:13:45.452Z,9.10
2018-12-30T21:18:40.969Z,9.10
2018-12-30T21:23:36.467Z,9.00
2018-12-30T21:28:31.955Z,9.00
2018-12-30T21:33:27.435Z,9.00
2018-12-30T21:38:23.010Z,9.00
2018-12-30T21:43:18.604Z,9.00
2018-12-30T21:48:14.131Z,9.00
2018-12-30T21:53:09.601Z,9.00
2018-12-30T21:58:05.154Z,9.00
2018-12-30T22:03:00.645Z,9.00
2018-12-30T22:07:56.148Z,9.00
2018-12-30T22:12:51.642Z,9.00
2018-12-30T22:17:47.230Z,9.00
2018-12-30T22:22:42.724Z,9.00
2018-12-30T22:27:38.290Z,9.00
2018-12-30T22:32:33.800Z,9.00
2018-12-30T22:37:29.295Z,9.00
2018-12-30T22:42:32.539Z,9.00
2018-12-30T22:47:23.774Z,9.00
2018-12-30T22:52:19.404Z,9.00
2018-12-30T22:57:14.863Z,9.00
2018-12-30T23:02:10.361Z,9.00
2018-12-30T23:07:05.867Z,9.10
2018-12-30T23:12:01.740Z,9.10
2018-12-30T23:16:57.319Z,9.10
2018-12-30T23:21:52.813Z,9.10
2018-12-30T23:26:48.369Z,9.20
2018-12-30T23:31:43.854Z,9.20
2018-12-30T23:36:39.375Z,9.20
2018-12-30T23:41:34.866Z,9.20
2018-12-30T23:46:30.366Z,9.20
2018-12-30T23:51:25.877Z,9.20
2018-12-30T23:56:21.322Z,9.20
